South Haven, MI (49090)

12:05 AM EDT on September 15, 2014 (GMT -0400)
KMISOUTH8 | Change Station
CLOSE
Current Station
Personal Weather Station
Location: South Haven, MI
Elevation: 673 ft
Nearby Weather Stations

Elev 673 ft 42.44 °N, 86.25 °W | Updated 40 seconds ago

Clear
Clear
49.1 °F
Feels Like 49 °F
N
0.0
Wind Variable Wind from SW
Gusts 0.0 mph

Today
High -- | Low -- °F
--% Chance of Precip.
Yesterday
High -- | Low -- °F
Precip. -- in
7:24 AM 7:54 PM
Waning Gibbous, 59% visible
Pressure 30.19 in
Visibility 10.0 miles
Clouds Clear
Windchill 49 °F
Dew Point 48 °F
Humidity 96%
Rainfall 0.00 in
Snow Depth Not available.
UV 0 out of 12
Pollen 3.90 out of 12
Ozone Good
PM2.5 Moderate
Flu Activity Not available.
METAR KLWA 150354Z AUTO 00000KT 10SM CLR 09/08 A3019 RMK AO2 T00900082

More Conditions Fewer Conditions

Pressure 30.19 in
Visibility 10.0 miles
Clouds Clear
Windchill 49 °F
Dew Point 48 °F
Humidity 96%
Rainfall 0.00 in
Snow Depth Not available.
UV 0 out of 12
Pollen 3.90 out of 12
Ozone Good
PM2.5 Moderate
Flu Activity Not available.
METAR KLWA 150354Z AUTO 00000KT 10SM CLR 09/08 A3019 RMK AO2 T00900082

More Conditions Fewer Conditions

10-Day Weather Forecast

Almanac

Astronomy

Sep. 15, 2014 Rise Set
Actual Time 7:24 AM EDT 7:54 PM EDT
Civil Twilight 6:56 AM EDT 8:22 PM EDT
Nautical Twilight 6:23 AM EDT 8:56 PM EDT
Astronomical Twilight 5:49 AM EDT 9:30 PM EDT
Moon No Moon Rise 2:31 PM EDT
Length of Visible Light 13h 26m
Length of Day
12h 29m
Tomorrow will be 2m 50s shorter.
Waning Gibbous, 59% of the Moon is Illuminated
Today
Waning Gibbous
Sep 15
Last Quarter
Sep 24
New
Oct 1
First Quarter
Oct 8
Full

Yesterday's Extremes

State Highs State Lows

Community

WunderPhotos

Upload Photos

1,753,398 photos uploaded!

Nearby

Air Quality

  Air Quality AQ Index Pollutant
Yesterday Good
OZONE
Yesterday Good
PM2.5
Current Moderate
PM2.5
Current Good
OZONE
Sunday Good
OZONE
Sunday Good
PM2.5
Monday Good
OZONE
Monday Good
PM2.5

Snow Depth

Station Depth Elevation
No new snow has been reported.

Earthquake Activity

City Distance Mag. Time & Date
No recent earthquake activity has been reported nearby.
Minimum magnitude displayed is 2.5.

Coastal Water Temperatures

Place Temperature
Holland, MI 59.0 °F

Nearby Weather Stations